sensor_id;sensor_type;location;lat;lon;timestamp;temperature;humidity
19870;DHT22;10097;50.862;4.696;2023-07-31T00:02:02;17.60;99.90
19870;DHT22;10097;50.862;4.696;2023-07-31T00:04:28;17.70;99.90
19870;DHT22;10097;50.862;4.696;2023-07-31T00:06:54;17.70;99.90
19870;DHT22;10097;50.862;4.696;2023-07-31T00:09:19;17.70;99.90
19870;DHT22;10097;50.862;4.696;2023-07-31T00:11:45;17.80;99.90
19870;DHT22;10097;50.862;4.696;2023-07-31T00:14:11;17.80;99.90
19870;DHT22;10097;50.862;4.696;2023-07-31T00:16:36;17.70;99.90
19870;DHT22;10097;50.862;4.696;2023-07-31T00:19:02;17.90;99.90
19870;DHT22;10097;50.862;4.696;2023-07-31T00:21:28;17.90;99.90
19870;DHT22;10097;50.862;4.696;2023-07-31T00:23:53;17.90;99.90
19870;DHT22;10097;50.862;4.696;2023-07-31T00:26:19;17.80;99.90
19870;DHT22;10097;50.862;4.696;2023-07-31T00:28:45;17.70;99.90
19870;DHT22;10097;50.862;4.696;2023-07-31T00:31:10;17.80;99.90
19870;DHT22;10097;50.862;4.696;2023-07-31T00:33:36;17.80;99.90
19870;DHT22;10097;50.862;4.696;2023-07-31T00:36:02;17.80;99.90
19870;DHT22;10097;50.862;4.696;2023-07-31T00:38:27;17.80;99.90
19870;DHT22;10097;50.862;4.696;2023-07-31T00:40:53;17.80;99.90
19870;DHT22;10097;50.862;4.696;2023-07-31T00:43:19;17.90;99.90
19870;DHT22;10097;50.862;4.696;2023-07-31T00:45:44;18.00;99.90
19870;DHT22;10097;50.862;4.696;2023-07-31T00:48:10;18.00;99.90
19870;DHT22;10097;50.862;4.696;2023-07-31T00:50:36;18.00;99.90
19870;DHT22;10097;50.862;4.696;2023-07-31T00:53:03;18.00;99.90
19870;DHT22;10097;50.862;4.696;2023-07-31T00:55:29;18.10;99.90
19870;DHT22;10097;50.862;4.696;2023-07-31T00:57:55;18.10;99.90
19870;DHT22;10097;50.862;4.696;2023-07-31T01:00:21;18.10;99.90
19870;DHT22;10097;50.862;4.696;2023-07-31T01:02:48;18.00;99.90
19870;DHT22;10097;50.862;4.696;2023-07-31T01:05:14;18.00;99.90
19870;DHT22;10097;50.862;4.696;2023-07-31T01:08:04;18.00;99.90
19870;DHT22;10097;50.862;4.696;2023-07-31T01:10:37;18.00;99.90
19870;DHT22;10097;50.862;4.696;2023-07-31T01:13:06;18.10;99.90
19870;DHT22;10097;50.862;4.696;2023-07-31T01:15:31;18.00;99.90
19870;DHT22;10097;50.862;4.696;2023-07-31T01:17:57;18.00;99.90
19870;DHT22;10097;50.862;4.696;2023-07-31T01:20:24;18.00;99.90
19870;DHT22;10097;50.862;4.696;2023-07-31T01:28:07;18.10;99.90
19870;DHT22;10097;50.862;4.696;2023-07-31T01:30:34;18.10;99.90
19870;DHT22;10097;50.862;4.696;2023-07-31T01:33:03;18.10;99.90
19870;DHT22;10097;50.862;4.696;2023-07-31T01:35:37;18.00;99.90
19870;DHT22;10097;50.862;4.696;2023-07-31T01:38:04;17.80;99.90
19870;DHT22;10097;50.862;4.696;2023-07-31T01:40:30;17.90;99.90
19870;DHT22;10097;50.862;4.696;2023-07-31T01:42:56;18.00;99.90
19870;DHT22;10097;50.862;4.696;2023-07-31T01:45:21;18.10;99.90
19870;DHT22;10097;50.862;4.696;2023-07-31T01:47:47;18.10;99.90
19870;DHT22;10097;50.862;4.696;2023-07-31T01:50:13;18.10;99.90
19870;DHT22;10097;50.862;4.696;2023-07-31T01:52:38;18.10;99.90
19870;DHT22;10097;50.862;4.696;2023-07-31T01:55:04;18.10;99.90
19870;DHT22;10097;50.862;4.696;2023-07-31T01:57:30;18.10;99.90
19870;DHT22;10097;50.862;4.696;2023-07-31T01:59:56;18.20;99.90
19870;DHT22;10097;50.862;4.696;2023-07-31T02:02:22;18.10;99.90
19870;DHT22;10097;50.862;4.696;2023-07-31T02:04:48;18.20;99.90
19870;DHT22;10097;50.862;4.696;2023-07-31T02:07:14;18.10;99.90
19870;DHT22;10097;50.862;4.696;2023-07-31T02:09:40;18.10;99.90
19870;DHT22;10097;50.862;4.696;2023-07-31T02:12:06;18.20;99.90
19870;DHT22;10097;50.862;4.696;2023-07-31T02:14:34;18.20;99.90
19870;DHT22;10097;50.862;4.696;2023-07-31T02:16:59;18.30;99.90
19870;DHT22;10097;50.862;4.696;2023-07-31T02:19:25;18.20;99.90
19870;DHT22;10097;50.862;4.696;2023-07-31T02:21:51;18.30;99.90
19870;DHT22;10097;50.862;4.696;2023-07-31T02:24:16;18.20;99.90
19870;DHT22;10097;50.862;4.696;2023-07-31T02:26:44;18.10;99.90
19870;DHT22;10097;50.862;4.696;2023-07-31T02:29:10;18.10;99.90
19870;DHT22;10097;50.862;4.696;2023-07-31T02:31:35;18.10;99.90
19870;DHT22;10097;50.862;4.696;2023-07-31T02:34:01;18.20;99.90
19870;DHT22;10097;50.862;4.696;2023-07-31T02:36:27;18.20;99.90
19870;DHT22;10097;50.862;4.696;2023-07-31T02:38:52;18.20;99.90
19870;DHT22;10097;50.862;4.696;2023-07-31T02:41:18;18.20;99.90
19870;DHT22;10097;50.862;4.696;2023-07-31T02:43:44;18.20;99.90
19870;DHT22;10097;50.862;4.696;2023-07-31T02:46:09;18.40;99.90
19870;DHT22;10097;50.862;4.696;2023-07-31T02:48:35;18.40;99.90
19870;DHT22;10097;50.862;4.696;2023-07-31T02:51:01;18.30;99.90
19870;DHT22;10097;50.862;4.696;2023-07-31T02:53:26;18.40;99.90
19870;DHT22;10097;50.862;4.696;2023-07-31T02:55:52;18.40;99.90
19870;DHT22;10097;50.862;4.696;2023-07-31T02:58:18;18.40;99.90
19870;DHT22;10097;50.862;4.696;2023-07-31T03:00:44;18.40;99.90
19870;DHT22;10097;50.862;4.696;2023-07-31T03:03:10;18.50;99.90
19870;DHT22;10097;50.862;4.696;2023-07-31T03:05:36;18.40;99.90
19870;DHT22;10097;50.862;4.696;2023-07-31T03:08:01;18.40;99.90
19870;DHT22;10097;50.862;4.696;2023-07-31T03:10:27;18.40;99.90
19870;DHT22;10097;50.862;4.696;2023-07-31T03:12:53;18.50;99.90
19870;DHT22;10097;50.862;4.696;2023-07-31T03:15:18;18.40;99.90
19870;DHT22;10097;50.862;4.696;2023-07-31T03:17:44;18.30;99.90
19870;DHT22;10097;50.862;4.696;2023-07-31T03:20:10;18.20;99.90
19870;DHT22;10097;50.862;4.696;2023-07-31T03:22:36;18.20;99.90
19870;DHT22;10097;50.862;4.696;2023-07-31T03:25:02;18.20;99.90
19870;DHT22;10097;50.862;4.696;2023-07-31T03:27:28;18.20;99.90
19870;DHT22;10097;50.862;4.696;2023-07-31T03:29:54;18.30;99.90
19870;DHT22;10097;50.862;4.696;2023-07-31T03:32:20;18.20;99.90
19870;DHT22;10097;50.862;4.696;2023-07-31T03:34:45;18.20;99.90
19870;DHT22;10097;50.862;4.696;2023-07-31T03:37:11;18.20;99.90
19870;DHT22;10097;50.862;4.696;2023-07-31T03:39:37;18.20;99.90
19870;DHT22;10097;50.862;4.696;2023-07-31T03:42:03;18.20;99.90
19870;DHT22;10097;50.862;4.696;2023-07-31T03:44:28;18.20;99.90
19870;DHT22;10097;50.862;4.696;2023-07-31T03:46:54;18.30;99.90
19870;DHT22;10097;50.862;4.696;2023-07-31T03:49:20;18.20;99.90
19870;DHT22;10097;50.862;4.696;2023-07-31T03:51:45;18.10;99.90
19870;DHT22;10097;50.862;4.696;2023-07-31T03:54:11;18.20;99.90
19870;DHT22;10097;50.862;4.696;2023-07-31T03:56:38;18.20;99.90
19870;DHT22;10097;50.862;4.696;2023-07-31T03:59:04;18.00;99.90
19870;DHT22;10097;50.862;4.696;2023-07-31T04:01:30;18.00;99.90
19870;DHT22;10097;50.862;4.696;2023-07-31T04:03:55;18.00;99.90
19870;DHT22;10097;50.862;4.696;2023-07-31T04:06:21;18.10;99.90
19870;DHT22;10097;50.862;4.696;2023-07-31T04:08:47;17.90;99.90
19870;DHT22;10097;50.862;4.696;2023-07-31T04:11:12;17.80;99.90
19870;DHT22;10097;50.862;4.696;2023-07-31T04:13:39;17.70;99.90
19870;DHT22;10097;50.862;4.696;2023-07-31T04:16:05;17.70;99.90
19870;DHT22;10097;50.862;4.696;2023-07-31T04:18:31;17.70;99.90
19870;DHT22;10097;50.862;4.696;2023-07-31T04:20:58;17.70;99.90
19870;DHT22;10097;50.862;4.696;2023-07-31T04:33:41;17.50;99.90
19870;DHT22;10097;50.862;4.696;2023-07-31T04:53:14;17.60;99.90
19870;DHT22;10097;50.862;4.696;2023-07-31T04:59:01;17.50;99.90
19870;DHT22;10097;50.862;4.696;2023-07-31T05:04:49;17.50;99.90
19870;DHT22;10097;50.862;4.696;2023-07-31T05:07:15;17.50;99.90
19870;DHT22;10097;50.862;4.696;2023-07-31T05:09:42;17.50;99.90
19870;DHT22;10097;50.862;4.696;2023-07-31T05:12:08;17.40;99.90
19870;DHT22;10097;50.862;4.696;2023-07-31T05:14:34;17.50;99.90
19870;DHT22;10097;50.862;4.696;2023-07-31T05:16:59;17.50;99.90
19870;DHT22;10097;50.862;4.696;2023-07-31T05:19:25;17.60;99.90
19870;DHT22;10097;50.862;4.696;2023-07-31T05:21:50;17.50;99.90
19870;DHT22;10097;50.862;4.696;2023-07-31T05:24:16;17.40;99.90
19870;DHT22;10097;50.862;4.696;2023-07-31T05:26:48;17.40;99.90
19870;DHT22;10097;50.862;4.696;2023-07-31T05:29:13;17.40;99.90
19870;DHT22;10097;50.862;4.696;2023-07-31T05:31:39;17.30;99.90
19870;DHT22;10097;50.862;4.696;2023-07-31T05:34:05;17.20;99.90
19870;DHT22;10097;50.862;4.696;2023-07-31T05:36:30;17.10;99.90
19870;DHT22;10097;50.862;4.696;2023-07-31T05:38:56;17.10;99.90
19870;DHT22;10097;50.862;4.696;2023-07-31T05:41:22;17.10;99.90
19870;DHT22;10097;50.862;4.696;2023-07-31T05:43:48;17.10;99.90
19870;DHT22;10097;50.862;4.696;2023-07-31T05:46:14;17.10;99.90
19870;DHT22;10097;50.862;4.696;2023-07-31T05:48:41;17.10;99.90
19870;DHT22;10097;50.862;4.696;2023-07-31T05:51:06;17.10;99.90
19870;DHT22;10097;50.862;4.696;2023-07-31T05:53:32;17.00;99.90
19870;DHT22;10097;50.862;4.696;2023-07-31T05:55:58;17.00;99.90
19870;DHT22;10097;50.862;4.696;2023-07-31T05:58:23;17.00;99.90
19870;DHT22;10097;50.862;4.696;2023-07-31T06:00:49;16.90;99.90
19870;DHT22;10097;50.862;4.696;2023-07-31T06:03:15;16.90;99.90
19870;DHT22;10097;50.862;4.696;2023-07-31T06:05:40;16.90;99.90
19870;DHT22;10097;50.862;4.696;2023-07-31T06:08:06;16.90;99.90
19870;DHT22;10097;50.862;4.696;2023-07-31T06:10:32;16.90;99.90
19870;DHT22;10097;50.862;4.696;2023-07-31T06:12:57;16.90;99.90
19870;DHT22;10097;50.862;4.696;2023-07-31T06:15:23;17.00;99.90
19870;DHT22;10097;50.862;4.696;2023-07-31T06:17:48;17.00;99.90
19870;DHT22;10097;50.862;4.696;2023-07-31T06:20:14;17.00;99.90
19870;DHT22;10097;50.862;4.696;2023-07-31T06:22:40;16.90;99.90
19870;DHT22;10097;50.862;4.696;2023-07-31T06:25:06;16.90;99.90
19870;DHT22;10097;50.862;4.696;2023-07-31T06:27:31;16.90;99.90
19870;DHT22;10097;50.862;4.696;2023-07-31T06:29:57;16.90;99.90
19870;DHT22;10097;50.862;4.696;2023-07-31T06:32:23;16.90;99.90
19870;DHT22;10097;50.862;4.696;2023-07-31T06:34:48;17.00;99.90
19870;DHT22;10097;50.862;4.696;2023-07-31T06:37:14;17.10;99.90
19870;DHT22;10097;50.862;4.696;2023-07-31T06:39:40;17.10;99.90
19870;DHT22;10097;50.862;4.696;2023-07-31T06:42:06;17.10;99.90
19870;DHT22;10097;50.862;4.696;2023-07-31T06:44:31;17.20;99.90
19870;DHT22;10097;50.862;4.696;2023-07-31T06:46:57;17.20;99.90
19870;DHT22;10097;50.862;4.696;2023-07-31T06:52:26;17.30;99.90
19870;DHT22;10097;50.862;4.696;2023-07-31T06:55:03;17.40;99.90
19870;DHT22;10097;50.862;4.696;2023-07-31T06:57:29;17.40;99.90
19870;DHT22;10097;50.862;4.696;2023-07-31T06:59:55;17.40;99.90
19870;DHT22;10097;50.862;4.696;2023-07-31T07:02:20;17.50;99.90
19870;DHT22;10097;50.862;4.696;2023-07-31T07:04:49;17.50;99.90
19870;DHT22;10097;50.862;4.696;2023-07-31T07:07:15;17.60;99.90
19870;DHT22;10097;50.862;4.696;2023-07-31T07:09:43;17.70;99.90
19870;DHT22;10097;50.862;4.696;2023-07-31T07:12:09;17.70;99.90
19870;DHT22;10097;50.862;4.696;2023-07-31T07:14:34;17.70;99.90
19870;DHT22;10097;50.862;4.696;2023-07-31T07:17:00;17.80;99.90
19870;DHT22;10097;50.862;4.696;2023-07-31T07:19:28;17.90;99.90
19870;DHT22;10097;50.862;4.696;2023-07-31T07:22:02;18.00;99.90
19870;DHT22;10097;50.862;4.696;2023-07-31T07:24:28;18.10;99.90
19870;DHT22;10097;50.862;4.696;2023-07-31T07:26:54;18.30;99.90
19870;DHT22;10097;50.862;4.696;2023-07-31T07:29:20;18.40;99.90
19870;DHT22;10097;50.862;4.696;2023-07-31T07:31:45;18.60;99.90
19870;DHT22;10097;50.862;4.696;2023-07-31T07:34:16;18.70;99.90
19870;DHT22;10097;50.862;4.696;2023-07-31T07:36:41;18.90;99.90
19870;DHT22;10097;50.862;4.696;2023-07-31T07:39:09;19.00;99.90
19870;DHT22;10097;50.862;4.696;2023-07-31T07:41:38;19.10;99.90
19870;DHT22;10097;50.862;4.696;2023-07-31T07:44:07;19.10;99.90
19870;DHT22;10097;50.862;4.696;2023-07-31T07:46:33;18.90;99.90
19870;DHT22;10097;50.862;4.696;2023-07-31T07:48:58;18.80;99.90
19870;DHT22;10097;50.862;4.696;2023-07-31T07:51:24;18.90;99.90
19870;DHT22;10097;50.862;4.696;2023-07-31T07:53:50;18.90;99.90
19870;DHT22;10097;50.862;4.696;2023-07-31T07:56:16;18.90;99.90
19870;DHT22;10097;50.862;4.696;2023-07-31T07:58:41;18.90;99.90
19870;DHT22;10097;50.862;4.696;2023-07-31T08:01:07;19.00;99.90
19870;DHT22;10097;50.862;4.696;2023-07-31T08:03:33;19.00;99.90
19870;DHT22;10097;50.862;4.696;2023-07-31T08:05:59;19.00;99.90
19870;DHT22;10097;50.862;4.696;2023-07-31T08:08:25;19.10;99.90
19870;DHT22;10097;50.862;4.696;2023-07-31T08:10:51;19.20;99.90
19870;DHT22;10097;50.862;4.696;2023-07-31T08:13:17;19.10;99.90
19870;DHT22;10097;50.862;4.696;2023-07-31T08:15:42;18.90;99.90
19870;DHT22;10097;50.862;4.696;2023-07-31T08:18:09;19.10;99.90
19870;DHT22;10097;50.862;4.696;2023-07-31T08:20:35;19.20;99.90
19870;DHT22;10097;50.862;4.696;2023-07-31T08:23:00;19.30;99.90
19870;DHT22;10097;50.862;4.696;2023-07-31T08:25:26;19.30;99.90
19870;DHT22;10097;50.862;4.696;2023-07-31T08:27:52;19.50;99.90
19870;DHT22;10097;50.862;4.696;2023-07-31T08:30:19;19.50;99.90
19870;DHT22;10097;50.862;4.696;2023-07-31T08:32:44;19.40;99.90
19870;DHT22;10097;50.862;4.696;2023-07-31T08:35:10;19.50;99.90
19870;DHT22;10097;50.862;4.696;2023-07-31T08:37:38;19.40;99.90
19870;DHT22;10097;50.862;4.696;2023-07-31T08:40:04;19.40;99.90
19870;DHT22;10097;50.862;4.696;2023-07-31T08:42:31;19.40;99.90
19870;DHT22;10097;50.862;4.696;2023-07-31T08:44:58;19.50;99.90
19870;DHT22;10097;50.862;4.696;2023-07-31T08:47:28;19.50;99.90
19870;DHT22;10097;50.862;4.696;2023-07-31T08:49:54;19.40;99.90
19870;DHT22;10097;50.862;4.696;2023-07-31T08:52:24;19.20;99.90
19870;DHT22;10097;50.862;4.696;2023-07-31T08:54:50;19.30;99.90
19870;DHT22;10097;50.862;4.696;2023-07-31T08:57:16;19.10;99.90
19870;DHT22;10097;50.862;4.696;2023-07-31T08:59:43;19.20;99.90
19870;DHT22;10097;50.862;4.696;2023-07-31T09:02:12;19.20;99.90
19870;DHT22;10097;50.862;4.696;2023-07-31T09:04:40;19.40;99.90
19870;DHT22;10097;50.862;4.696;2023-07-31T09:07:09;19.60;99.90
19870;DHT22;10097;50.862;4.696;2023-07-31T09:09:43;19.70;99.90
19870;DHT22;10097;50.862;4.696;2023-07-31T09:37:01;19.60;99.90
19870;DHT22;10097;50.862;4.696;2023-07-31T09:40:16;19.60;99.90
19870;DHT22;10097;50.862;4.696;2023-07-31T10:49:32;22.20;99.90
19870;DHT22;10097;50.862;4.696;2023-07-31T10:52:01;22.30;99.90
19870;DHT22;10097;50.862;4.696;2023-07-31T10:54:30;22.20;99.90
19870;DHT22;10097;50.862;4.696;2023-07-31T10:56:59;21.90;99.90
19870;DHT22;10097;50.862;4.696;2023-07-31T10:59:37;21.80;99.90
19870;DHT22;10097;50.862;4.696;2023-07-31T11:02:26;21.60;99.90
19870;DHT22;10097;50.862;4.696;2023-07-31T11:05:08;21.60;99.90
19870;DHT22;10097;50.862;4.696;2023-07-31T11:08:00;21.60;99.90
19870;DHT22;10097;50.862;4.696;2023-07-31T11:10:26;21.70;99.90
19870;DHT22;10097;50.862;4.696;2023-07-31T11:12:51;21.60;99.90
19870;DHT22;10097;50.862;4.696;2023-07-31T11:15:17;21.50;99.90
19870;DHT22;10097;50.862;4.696;2023-07-31T11:17:46;21.60;99.90
19870;DHT22;10097;50.862;4.696;2023-07-31T11:20:12;21.70;99.90
19870;DHT22;10097;50.862;4.696;2023-07-31T11:22:40;21.90;99.90
19870;DHT22;10097;50.862;4.696;2023-07-31T11:27:47;22.00;99.90
19870;DHT22;10097;50.862;4.696;2023-07-31T11:30:29;22.10;99.90
19870;DHT22;10097;50.862;4.696;2023-07-31T11:33:02;22.10;99.90
19870;DHT22;10097;50.862;4.696;2023-07-31T11:36:10;22.10;99.90
19870;DHT22;10097;50.862;4.696;2023-07-31T11:39:07;22.20;99.90
19870;DHT22;10097;50.862;4.696;2023-07-31T11:41:43;22.40;99.90
19870;DHT22;10097;50.862;4.696;2023-07-31T11:44:37;22.40;99.90
19870;DHT22;10097;50.862;4.696;2023-07-31T11:47:54;22.50;99.90
19870;DHT22;10097;50.862;4.696;2023-07-31T11:50:33;22.50;99.90
19870;DHT22;10097;50.862;4.696;2023-07-31T11:53:11;22.90;99.90
19870;DHT22;10097;50.862;4.696;2023-07-31T11:56:07;22.80;99.90
19870;DHT22;10097;50.862;4.696;2023-07-31T11:58:59;22.80;99.90
19870;DHT22;10097;50.862;4.696;2023-07-31T12:01:53;22.50;99.90
19870;DHT22;10097;50.862;4.696;2023-07-31T12:04:29;22.70;99.90
19870;DHT22;10097;50.862;4.696;2023-07-31T12:07:23;22.80;99.90
19870;DHT22;10097;50.862;4.696;2023-07-31T12:10:14;22.90;99.90
19870;DHT22;10097;50.862;4.696;2023-07-31T12:13:07;22.90;99.90
19870;DHT22;10097;50.862;4.696;2023-07-31T12:19:02;22.90;99.90
19870;DHT22;10097;50.862;4.696;2023-07-31T12:21:41;23.00;99.90
19870;DHT22;10097;50.862;4.696;2023-07-31T12:24:12;23.00;99.90
19870;DHT22;10097;50.862;4.696;2023-07-31T12:26:45;23.30;99.90
19870;DHT22;10097;50.862;4.696;2023-07-31T12:32:42;23.70;99.90
19870;DHT22;10097;50.862;4.696;2023-07-31T12:35:20;23.50;99.90
19870;DHT22;10097;50.862;4.696;2023-07-31T12:37:46;23.40;99.90
19870;DHT22;10097;50.862;4.696;2023-07-31T12:40:14;23.10;99.90
19870;DHT22;10097;50.862;4.696;2023-07-31T12:42:43;22.90;99.90
19870;DHT22;10097;50.862;4.696;2023-07-31T12:45:21;22.90;99.90
19870;DHT22;10097;50.862;4.696;2023-07-31T12:47:52;22.90;99.90
19870;DHT22;10097;50.862;4.696;2023-07-31T12:50:20;22.90;99.90
19870;DHT22;10097;50.862;4.696;2023-07-31T12:53:05;22.90;99.90
19870;DHT22;10097;50.862;4.696;2023-07-31T12:55:35;23.00;99.90
19870;DHT22;10097;50.862;4.696;2023-07-31T12:58:07;22.80;99.90
19870;DHT22;10097;50.862;4.696;2023-07-31T13:00:36;22.60;99.90
19870;DHT22;10097;50.862;4.696;2023-07-31T13:03:10;22.60;99.90
19870;DHT22;10097;50.862;4.696;2023-07-31T13:05:54;22.50;99.90
19870;DHT22;10097;50.862;4.696;2023-07-31T13:08:25;22.20;99.90
19870;DHT22;10097;50.862;4.696;2023-07-31T13:10:53;22.00;99.90
19870;DHT22;10097;50.862;4.696;2023-07-31T13:13:24;21.70;99.90
19870;DHT22;10097;50.862;4.696;2023-07-31T13:15:52;21.70;99.90
19870;DHT22;10097;50.862;4.696;2023-07-31T13:18:18;21.70;99.90
19870;DHT22;10097;50.862;4.696;2023-07-31T13:20:43;21.80;99.90
19870;DHT22;10097;50.862;4.696;2023-07-31T13:23:09;21.60;99.90
19870;DHT22;10097;50.862;4.696;2023-07-31T13:25:35;21.60;99.90
19870;DHT22;10097;50.862;4.696;2023-07-31T13:28:00;21.60;99.90
19870;DHT22;10097;50.862;4.696;2023-07-31T13:30:26;21.60;99.90
19870;DHT22;10097;50.862;4.696;2023-07-31T13:32:52;21.40;99.90
19870;DHT22;10097;50.862;4.696;2023-07-31T13:35:20;21.20;99.90
19870;DHT22;10097;50.862;4.696;2023-07-31T13:37:48;21.00;99.90
19870;DHT22;10097;50.862;4.696;2023-07-31T13:40:14;20.70;99.90
19870;DHT22;10097;50.862;4.696;2023-07-31T13:42:40;20.20;99.90
19870;DHT22;10097;50.862;4.696;2023-07-31T13:45:06;19.90;99.90
19870;DHT22;10097;50.862;4.696;2023-07-31T13:47:34;19.70;99.90
19870;DHT22;10097;50.862;4.696;2023-07-31T13:50:16;19.50;99.90
19870;DHT22;10097;50.862;4.696;2023-07-31T13:52:56;19.40;99.90
19870;DHT22;10097;50.862;4.696;2023-07-31T13:55:22;19.30;99.90
19870;DHT22;10097;50.862;4.696;2023-07-31T13:57:48;19.20;99.90
19870;DHT22;10097;50.862;4.696;2023-07-31T14:00:14;19.10;99.90
19870;DHT22;10097;50.862;4.696;2023-07-31T14:02:40;19.00;99.90
19870;DHT22;10097;50.862;4.696;2023-07-31T14:05:05;18.90;99.90
19870;DHT22;10097;50.862;4.696;2023-07-31T14:07:33;18.80;99.90
19870;DHT22;10097;50.862;4.696;2023-07-31T14:09:59;18.90;99.90
19870;DHT22;10097;50.862;4.696;2023-07-31T14:12:24;18.70;99.90
19870;DHT22;10097;50.862;4.696;2023-07-31T14:14:50;18.70;99.90
19870;DHT22;10097;50.862;4.696;2023-07-31T14:17:16;18.80;99.90
19870;DHT22;10097;50.862;4.696;2023-07-31T14:19:42;18.80;99.90
19870;DHT22;10097;50.862;4.696;2023-07-31T14:22:08;18.80;99.90
19870;DHT22;10097;50.862;4.696;2023-07-31T14:24:33;18.80;99.90
19870;DHT22;10097;50.862;4.696;2023-07-31T14:26:59;18.80;99.90
19870;DHT22;10097;50.862;4.696;2023-07-31T14:29:25;18.80;99.90
19870;DHT22;10097;50.862;4.696;2023-07-31T14:31:51;18.80;99.90
19870;DHT22;10097;50.862;4.696;2023-07-31T14:34:16;18.80;99.90
19870;DHT22;10097;50.862;4.696;2023-07-31T14:36:43;18.80;99.90
19870;DHT22;10097;50.862;4.696;2023-07-31T14:39:09;18.90;99.90
19870;DHT22;10097;50.862;4.696;2023-07-31T14:41:35;18.80;99.90
19870;DHT22;10097;50.862;4.696;2023-07-31T14:44:01;18.80;99.90
19870;DHT22;10097;50.862;4.696;2023-07-31T14:46:26;18.90;99.90
19870;DHT22;10097;50.862;4.696;2023-07-31T14:48:52;18.80;99.90
19870;DHT22;10097;50.862;4.696;2023-07-31T14:51:18;18.90;99.90
19870;DHT22;10097;50.862;4.696;2023-07-31T14:53:43;18.90;99.90
19870;DHT22;10097;50.862;4.696;2023-07-31T14:56:09;18.90;99.90
19870;DHT22;10097;50.862;4.696;2023-07-31T14:58:36;18.80;99.90
19870;DHT22;10097;50.862;4.696;2023-07-31T15:01:02;18.80;99.90
19870;DHT22;10097;50.862;4.696;2023-07-31T15:03:27;18.90;99.90
19870;DHT22;10097;50.862;4.696;2023-07-31T15:05:53;18.80;99.90
19870;DHT22;10097;50.862;4.696;2023-07-31T15:08:19;18.70;99.90
19870;DHT22;10097;50.862;4.696;2023-07-31T15:10:44;18.80;99.90
19870;DHT22;10097;50.862;4.696;2023-07-31T15:13:10;18.80;99.90
19870;DHT22;10097;50.862;4.696;2023-07-31T15:15:36;18.70;99.90
19870;DHT22;10097;50.862;4.696;2023-07-31T15:18:01;18.80;99.90
19870;DHT22;10097;50.862;4.696;2023-07-31T15:20:28;18.80;99.90
19870;DHT22;10097;50.862;4.696;2023-07-31T15:22:54;18.70;99.90
19870;DHT22;10097;50.862;4.696;2023-07-31T15:25:20;18.70;99.90
19870;DHT22;10097;50.862;4.696;2023-07-31T15:27:46;18.60;99.90
19870;DHT22;10097;50.862;4.696;2023-07-31T15:30:11;18.70;99.90
19870;DHT22;10097;50.862;4.696;2023-07-31T15:32:38;18.60;99.90
19870;DHT22;10097;50.862;4.696;2023-07-31T15:35:06;18.60;99.90
19870;DHT22;10097;50.862;4.696;2023-07-31T15:37:31;18.70;99.90
19870;DHT22;10097;50.862;4.696;2023-07-31T15:39:57;18.70;99.90
19870;DHT22;10097;50.862;4.696;2023-07-31T15:42:23;18.80;99.90
19870;DHT22;10097;50.862;4.696;2023-07-31T15:44:48;18.90;99.90
19870;DHT22;10097;50.862;4.696;2023-07-31T15:47:14;18.80;99.90
19870;DHT22;10097;50.862;4.696;2023-07-31T15:49:40;18.80;99.90
19870;DHT22;10097;50.862;4.696;2023-07-31T15:52:06;18.80;99.90
19870;DHT22;10097;50.862;4.696;2023-07-31T15:54:32;18.80;99.90
19870;DHT22;10097;50.862;4.696;2023-07-31T15:56:58;18.80;99.90
19870;DHT22;10097;50.862;4.696;2023-07-31T15:59:23;18.70;99.90
19870;DHT22;10097;50.862;4.696;2023-07-31T16:01:49;18.80;99.90
19870;DHT22;10097;50.862;4.696;2023-07-31T16:04:15;18.80;99.90
19870;DHT22;10097;50.862;4.696;2023-07-31T16:06:40;18.80;99.90
19870;DHT22;10097;50.862;4.696;2023-07-31T16:09:06;18.70;99.90
19870;DHT22;10097;50.862;4.696;2023-07-31T16:11:32;18.70;99.90
19870;DHT22;10097;50.862;4.696;2023-07-31T16:13:57;18.60;99.90
19870;DHT22;10097;50.862;4.696;2023-07-31T16:16:24;18.50;99.90
19870;DHT22;10097;50.862;4.696;2023-07-31T16:18:52;18.50;99.90
19870;DHT22;10097;50.862;4.696;2023-07-31T16:21:18;18.50;99.90
19870;DHT22;10097;50.862;4.696;2023-07-31T16:23:43;18.40;99.90
19870;DHT22;10097;50.862;4.696;2023-07-31T16:26:10;18.50;99.90
19870;DHT22;10097;50.862;4.696;2023-07-31T16:28:35;18.50;99.90
19870;DHT22;10097;50.862;4.696;2023-07-31T16:31:01;18.60;99.90
19870;DHT22;10097;50.862;4.696;2023-07-31T16:33:27;18.60;99.90
19870;DHT22;10097;50.862;4.696;2023-07-31T16:35:52;18.50;99.90
19870;DHT22;10097;50.862;4.696;2023-07-31T16:38:18;18.60;99.90
19870;DHT22;10097;50.862;4.696;2023-07-31T16:40:44;18.70;99.90
19870;DHT22;10097;50.862;4.696;2023-07-31T16:43:11;18.80;99.90
19870;DHT22;10097;50.862;4.696;2023-07-31T16:45:37;18.80;99.90
19870;DHT22;10097;50.862;4.696;2023-07-31T16:48:03;18.70;99.90
19870;DHT22;10097;50.862;4.696;2023-07-31T16:50:30;18.60;99.90
19870;DHT22;10097;50.862;4.696;2023-07-31T16:52:55;18.70;99.90
19870;DHT22;10097;50.862;4.696;2023-07-31T16:55:21;18.60;99.90
19870;DHT22;10097;50.862;4.696;2023-07-31T16:57:47;18.60;99.90
19870;DHT22;10097;50.862;4.696;2023-07-31T17:00:13;18.60;99.90
19870;DHT22;10097;50.862;4.696;2023-07-31T17:02:39;18.60;99.90
19870;DHT22;10097;50.862;4.696;2023-07-31T17:05:05;18.50;99.90
19870;DHT22;10097;50.862;4.696;2023-07-31T17:07:32;18.50;99.90
19870;DHT22;10097;50.862;4.696;2023-07-31T17:09:58;18.40;99.90
19870;DHT22;10097;50.862;4.696;2023-07-31T17:12:23;18.40;99.90
19870;DHT22;10097;50.862;4.696;2023-07-31T17:14:49;18.40;99.90
19870;DHT22;10097;50.862;4.696;2023-07-31T17:17:15;18.40;99.90
19870;DHT22;10097;50.862;4.696;2023-07-31T17:19:40;18.40;99.90
19870;DHT22;10097;50.862;4.696;2023-07-31T17:22:06;18.50;99.90
19870;DHT22;10097;50.862;4.696;2023-07-31T17:24:32;18.50;99.90
19870;DHT22;10097;50.862;4.696;2023-07-31T17:26:57;18.50;99.90
19870;DHT22;10097;50.862;4.696;2023-07-31T17:29:28;18.50;99.90
19870;DHT22;10097;50.862;4.696;2023-07-31T17:31:55;18.40;99.90
19870;DHT22;10097;50.862;4.696;2023-07-31T17:34:20;18.40;99.90
19870;DHT22;10097;50.862;4.696;2023-07-31T17:36:46;18.30;99.90
19870;DHT22;10097;50.862;4.696;2023-07-31T17:39:13;18.30;99.90
19870;DHT22;10097;50.862;4.696;2023-07-31T17:41:38;18.30;99.90
19870;DHT22;10097;50.862;4.696;2023-07-31T17:44:04;18.40;99.90
19870;DHT22;10097;50.862;4.696;2023-07-31T17:46:30;18.40;99.90
19870;DHT22;10097;50.862;4.696;2023-07-31T17:48:55;18.40;99.90
19870;DHT22;10097;50.862;4.696;2023-07-31T17:51:21;18.40;99.90
19870;DHT22;10097;50.862;4.696;2023-07-31T17:53:47;18.40;99.90
19870;DHT22;10097;50.862;4.696;2023-07-31T17:56:12;18.40;99.90
19870;DHT22;10097;50.862;4.696;2023-07-31T17:58:38;18.40;99.90